M/y Arion — 9HB2161 — position and weather

sailwx.info

Track history (hours):
 
Tides and Currents Weather Stations Pressure Air Temp Water Temp Dewpoint Dewpoint Depression Visibility Wind Speed Wind Dir Waves Ship Positions

M/y Arion

Last reported at 2015-May-20 17:33 UTC. Time now 2015-May-28 10:12 UTC.
Position N 43°32' E 007°09'.

Length 37 m; draft 2.2 m.

Type: Other ship. MMSI: 215479000.

Date/timePositionNaut miles runAvg speedWind from/ knotsBaromVisibWave heightAir tempDewpointWater temp
2015-May-20 17:33N 43°32' E 007°09'5 0.2
2015-May-19 11:20N 43°30' E 007°03'1821.0
2015-May-19 10:30N 43°42' E 007°21'0 0.4
2015-May-19 09:29N 43°42' E 007°20'0 0.0
2015-May-19 08:32N 43°42' E 007°20'0 0.0
2015-May-19 07:31N 43°42' E 007°20'0 0.0
2015-May-19 06:31N 43°42' E 007°20'0 0.0
2015-May-19 05:03N 43°42' E 007°20'0 0.0
2015-May-19 04:19N 43°42' E 007°20'0 0.0
2015-May-19 03:32N 43°42' E 007°20'0 0.0
2015-May-19 02:32N 43°42' E 007°20'0 0.0
2015-May-19 01:28N 43°42' E 007°20'0 0.0
2015-May-18 23:28N 43°42' E 007°20'0 0.0
2015-May-18 22:25N 43°42' E 007°20'0 0.0
2015-May-18 21:31N 43°42' E 007°20'0 0.0
2015-May-18 20:30N 43°42' E 007°20'0 0.0
2015-May-18 19:21N 43°42' E 007°20'2210.3
2015-May-18 17:12N 43°41' E 007°51'1320.8
2015-May-18 16:33N 43°43' E 008°09'2020.2
2015-May-18 15:33N 43°46' E 008°37'2019.9
2015-May-18 14:33N 43°48' E 009°04'1717.5
2015-May-18 13:34N 43°50' E 009°28'1413.6
2015-May-18 12:33N 43°51' E 009°47'1313.2
2015-May-18 11:33N 43°52' E 010°05'6 6.5
2015-May-18 10:33N 43°52' E 010°14'0 0.0
2015-May-18 09:33N 43°52' E 010°14'0 0.4
2015-May-18 08:33N 43°52' E 010°14'  
Track history (hours):
 
Tides and Currents Weather Stations Pressure Air Temp Water Temp Dewpoint Dewpoint Depression Visibility Wind Speed Wind Dir Waves Ship Positions

M/y Arion

Last reported at 2015-May-20 17:33 UTC. Time now 2015-May-28 10:12 UTC.
Position N 43°32' E 007°09'.

Length 37 m; draft 2.2 m.

Type: Other ship. MMSI: 215479000.

Date/timePositionNaut miles runAvg speedWind from/ knotsBaromVisibWave heightAir tempDewpointWater temp
2015-May-20 17:33N 43°32' E 007°09'5 0.2
2015-May-19 11:20N 43°30' E 007°03'1821.0
2015-May-19 10:30N 43°42' E 007°21'0 0.4
2015-May-19 09:29N 43°42' E 007°20'0 0.0
2015-May-19 08:32N 43°42' E 007°20'0 0.0
2015-May-19 07:31N 43°42' E 007°20'0 0.0
2015-May-19 06:31N 43°42' E 007°20'0 0.0
2015-May-19 05:03N 43°42' E 007°20'0 0.0
2015-May-19 04:19N 43°42' E 007°20'0 0.0
2015-May-19 03:32N 43°42' E 007°20'0 0.0
2015-May-19 02:32N 43°42' E 007°20'0 0.0
2015-May-19 01:28N 43°42' E 007°20'0 0.0
2015-May-18 23:28N 43°42' E 007°20'0 0.0
2015-May-18 22:25N 43°42' E 007°20'0 0.0
2015-May-18 21:31N 43°42' E 007°20'0 0.0
2015-May-18 20:30N 43°42' E 007°20'0 0.0
2015-May-18 19:21N 43°42' E 007°20'2210.3
2015-May-18 17:12N 43°41' E 007°51'1320.8
2015-May-18 16:33N 43°43' E 008°09'2020.2
2015-May-18 15:33N 43°46' E 008°37'2019.9
2015-May-18 14:33N 43°48' E 009°04'1717.5
2015-May-18 13:34N 43°50' E 009°28'1413.6
2015-May-18 12:33N 43°51' E 009°47'1313.2
2015-May-18 11:33N 43°52' E 010°05'6 6.5
2015-May-18 10:33N 43°52' E 010°14'0 0.0
2015-May-18 09:33N 43°52' E 010°14'0 0.4
2015-May-18 08:33N 43°52' E 010°14'  

Dump ship's entire track history